Time;durP1;ratioP1;P1;durP2;ratioP2;P2;SDS_P1;SDS_P2;PMS_P1;PMS_P2;Temp;Humidity;BMP_temperature;BMP_pressure;BME280_temperature;BME280_humidity;BME280_pressure;Samples;Min_cycle;Max_cycle;Signal;HPM_P1;HPM_P2
2022/09/17 00:02:21;;;;;;;2.28;0.63;;;13.60;99.90;;;;;;5040114;28;20338;-77
2022/09/17 00:04:48;;;;;;;4.57;0.70;;;13.60;99.90;;;;;;5038096;28;20454;-78
2022/09/17 00:07:14;;;;;;;2.47;0.70;;;13.60;99.90;;;;;;5056209;28;20031;-78
2022/09/17 00:09:40;;;;;;;3.35;0.80;;;13.60;99.90;;;;;;5057496;28;20021;-77
2022/09/17 00:12:06;;;;;;;3.28;0.63;;;13.50;99.90;;;;;;5039116;28;20389;-77
2022/09/17 00:14:31;;;;;;;1.80;0.75;;;13.60;99.90;;;;;;5040108;28;20025;-77
2022/09/17 00:16:57;;;;;;;0.90;0.50;;;13.70;99.90;;;;;;5041533;28;20021;-77
2022/09/17 00:19:24;;;;;;;3.00;1.67;;;13.60;99.90;;;;;;5041815;28;20032;-77
2022/09/17 00:21:50;;;;;;;2.17;1.33;;;13.50;99.90;;;;;;5039563;28;20170;-77
2022/09/17 00:24:16;;;;;;;;;;;13.50;99.90;;;;;;5040468;28;20504;-77
2022/09/17 00:26:42;;;;;;;1.70;0.70;;;13.40;99.90;;;;;;5040877;28;19905;-77
2022/09/17 00:29:08;;;;;;;1.92;0.70;;;13.50;99.90;;;;;;5059109;28;20028;-77
2022/09/17 00:31:35;;;;;;;2.10;0.70;;;13.50;99.90;;;;;;5040326;28;20112;-77
2022/09/17 00:34:02;;;;;;;3.83;0.82;;;13.50;99.90;;;;;;5040257;28;20036;-77
2022/09/17 00:36:28;;;;;;;6.72;0.80;;;13.40;99.90;;;;;;5040419;28;20110;-77
2022/09/17 00:38:56;;;;;;;5.77;0.93;;;13.40;99.90;;;;;;5040579;28;20028;-77
2022/09/17 00:41:25;;;;;;;2.13;0.80;;;13.40;99.90;;;;;;5038522;28;20094;-77
2022/09/17 00:43:53;;;;;;;2.00;0.80;;;13.30;99.90;;;;;;5037149;28;20465;-77
2022/09/17 00:46:37;;;;;;;2.22;0.80;;;13.30;99.90;;;;;;5054881;28;20032;-76
2022/09/17 00:49:13;;;;;;;3.20;0.75;;;13.30;99.90;;;;;;5036829;28;20028;-77
2022/09/17 00:51:44;;;;;;;1.55;0.60;;;13.30;99.90;;;;;;5036907;28;20139;-77
2022/09/17 00:54:10;;;;;;;1.83;0.82;;;13.30;99.90;;;;;;5036939;28;20087;-77
2022/09/17 00:56:39;;;;;;;1.58;0.60;;;13.30;99.90;;;;;;5054796;28;20029;-77
2022/09/17 00:59:07;;;;;;;2.65;0.90;;;13.30;99.90;;;;;;5036654;28;20035;-77
2022/09/17 01:01:33;;;;;;;7.30;0.80;;;13.30;99.90;;;;;;5036645;28;20069;-77
2022/09/17 01:03:59;;;;;;;9.95;2.25;;;13.30;99.90;;;;;;5056985;28;20028;-76
2022/09/17 01:06:34;;;;;;;3.17;0.80;;;13.30;99.90;;;;;;5036831;28;20029;-77
2022/09/17 01:09:18;;;;;;;1.33;0.60;;;13.30;99.90;;;;;;5054557;28;20049;-77
2022/09/17 01:12:16;;;;;;;5.53;1.00;;;13.20;99.90;;;;;;5036695;28;20025;-78
2022/09/17 01:14:45;;;;;;;4.20;0.82;;;13.10;99.90;;;;;;5040317;28;20066;-77
2022/09/17 01:17:30;;;;;;;2.00;0.55;;;13.00;99.90;;;;;;5038724;28;20502;-77
2022/09/17 01:20:08;;;;;;;3.33;0.68;;;13.00;99.90;;;;;;5056388;28;20025;-78
2022/09/17 01:23:11;;;;;;;3.20;0.75;;;13.00;99.90;;;;;;5036344;28;20029;-78
2022/09/17 01:26:17;;;;;;;3.33;0.70;;;13.10;99.90;;;;;;5036627;28;20025;-77
2022/09/17 01:29:04;;;;;;;3.63;0.80;;;13.00;99.90;;;;;;5037255;28;20029;-77
2022/09/17 01:31:46;;;;;;;1.90;0.85;;;13.10;99.90;;;;;;5054439;28;20438;-77
2022/09/17 01:34:52;;;;;;;2.75;0.73;;;13.00;99.90;;;;;;5037331;28;20025;-77
2022/09/17 01:37:29;;;;;;;3.72;0.88;;;13.10;99.90;;;;;;4975148;28;20033;-77
2022/09/17 01:40:23;;;;;;;3.78;1.00;;;13.00;99.90;;;;;;5037579;28;20052;-77
2022/09/17 01:43:21;;;;;;;2.85;1.15;;;13.10;99.90;;;;;;5057198;28;20024;-77
2022/09/17 01:45:51;;;;;;;5.13;0.70;;;13.00;99.90;;;;;;5035661;28;20067;-77
2022/09/17 01:48:30;;;;;;;3.92;0.85;;;12.90;99.90;;;;;;5036443;28;20033;-77
2022/09/17 01:51:09;;;;;;;2.75;0.75;;;13.00;99.90;;;;;;5053970;28;20065;-77
2022/09/17 01:53:45;;;;;;;2.15;0.60;;;13.10;99.90;;;;;;5037357;28;20319;-77
2022/09/17 01:56:17;;;;;;;5.43;0.90;;;13.10;99.90;;;;;;5036568;28;20025;-77
2022/09/17 01:58:50;;;;;;;4.00;0.80;;;13.10;99.90;;;;;;5037294;28;20048;-77
2022/09/17 02:01:21;;;;;;;4.18;0.75;;;13.10;99.90;;;;;;5041942;28;20112;-76
2022/09/17 02:03:56;;;;;;;1.55;0.80;;;13.00;99.90;;;;;;5041122;28;20032;-77
2022/09/17 02:06:28;;;;;;;2.53;0.80;;;13.10;99.90;;;;;;5041355;28;20088;-77
2022/09/17 02:08:58;;;;;;;2.53;0.70;;;13.10;99.90;;;;;;5038216;28;20093;-77
2022/09/17 02:11:24;;;;;;;1.98;0.55;;;13.10;99.90;;;;;;5036601;28;20084;-77
2022/09/17 02:14:06;;;;;;;4.88;0.80;;;13.00;99.90;;;;;;5036617;28;20136;-77
2022/09/17 02:16:34;;;;;;;1.75;0.50;;;13.00;99.90;;;;;;5037427;28;20025;-77
2022/09/17 02:19:12;;;;;;;2.70;0.80;;;13.00;99.90;;;;;;5039127;28;20032;-76
2022/09/17 02:22:05;;;;;;;4.60;1.60;;;12.90;99.90;;;;;;5062511;28;20052;-76
2022/09/17 02:25:00;;;;;;;4.40;0.77;;;12.90;99.90;;;;;;5040304;28;20420;-76
2022/09/17 02:27:46;;;;;;;1.63;0.70;;;12.80;99.90;;;;;;5054585;28;20029;-78
2022/09/17 02:30:13;;;;;;;1.40;0.70;;;12.90;99.90;;;;;;5036492;28;20442;-77
2022/09/17 02:32:39;;;;;;;2.83;0.70;;;12.80;99.90;;;;;;5055688;28;20268;-78
2022/09/17 02:35:05;;;;;;;5.10;0.93;;;12.80;99.90;;;;;;5035966;28;20079;-77
2022/09/17 02:37:31;;;;;;;2.55;0.80;;;12.70;99.90;;;;;;5061174;28;20061;-78
2022/09/17 02:39:56;;;;;;;3.40;0.80;;;12.60;99.90;;;;;;5062551;28;20057;-77
2022/09/17 02:42:27;;;;;;;2.20;0.70;;;12.50;99.90;;;;;;5045551;28;20029;-78
2022/09/17 02:45:20;;;;;;;1.92;0.90;;;12.50;99.90;;;;;;5064739;28;20048;-77
2022/09/17 02:48:04;;;;;;;4.78;0.82;;;12.40;99.90;;;;;;5048470;28;20508;-78
2022/09/17 02:50:48;;;;;;;2.65;0.98;;;12.40;99.90;;;;;;5049938;28;20032;-77
2022/09/17 02:53:22;;;;;;;2.20;0.82;;;12.40;99.90;;;;;;5049826;28;20025;-78
2022/09/17 02:56:17;;;;;;;2.75;0.90;;;12.30;99.90;;;;;;5046649;28;20112;-77
2022/09/17 02:58:59;;;;;;;4.95;1.33;;;12.30;99.90;;;;;;5045457;28;20021;-77
2022/09/17 03:01:41;;;;;;;2.85;0.98;;;12.20;99.90;;;;;;5039162;28;20043;-77
2022/09/17 03:04:09;;;;;;;2.85;0.70;;;12.20;99.90;;;;;;5037700;28;20121;-77
2022/09/17 03:06:35;;;;;;;2.80;0.88;;;12.10;99.90;;;;;;5035978;28;20079;-77
2022/09/17 03:09:00;;;;;;;4.35;0.98;;;12.10;99.90;;;;;;5037691;28;20029;-78
2022/09/17 03:11:26;;;;;;;3.17;1.07;;;12.10;99.90;;;;;;5042528;28;20089;-78
2022/09/17 03:13:51;;;;;;;2.10;0.73;;;12.00;99.90;;;;;;5042939;28;20024;-78
2022/09/17 03:16:17;;;;;;;3.10;0.87;;;12.00;99.90;;;;;;5044242;28;20473;-78
2022/09/17 03:18:42;;;;;;;2.33;0.80;;;11.90;99.90;;;;;;5043882;28;20040;-78
2022/09/17 03:21:08;;;;;;;2.33;0.90;;;11.90;99.90;;;;;;5043522;28;20389;-78
2022/09/17 03:23:34;;;;;;;2.10;0.80;;;11.90;99.90;;;;;;5041352;28;20459;-78
2022/09/17 03:26:00;;;;;;;3.13;0.90;;;12.00;99.90;;;;;;5057083;28;20021;-77
2022/09/17 03:28:26;;;;;;;7.03;1.10;;;12.00;99.90;;;;;;5037652;28;20350;-77
2022/09/17 03:30:52;;;;;;;3.40;0.80;;;12.00;99.90;;;;;;5038179;28;20053;-78
2022/09/17 03:33:18;;;;;;;1.20;0.90;;;12.00;99.90;;;;;;5038082;28;20260;-78
2022/09/17 03:35:44;;;;;;;;;;;11.90;99.90;;;;;;5039058;28;20067;-78
2022/09/17 03:38:10;;;;;;;3.22;1.10;;;11.90;99.90;;;;;;5042064;28;19912;-78
2022/09/17 03:40:35;;;;;;;2.70;1.77;;;11.90;99.90;;;;;;5042736;28;20055;-78
2022/09/17 03:43:01;;;;;;;5.33;0.97;;;11.90;99.90;;;;;;5044351;28;20032;-78
2022/09/17 03:45:26;;;;;;;3.13;1.10;;;11.90;99.90;;;;;;5044676;28;20037;-78
2022/09/17 03:47:52;;;;;;;1.93;1.10;;;11.90;99.90;;;;;;5045446;28;20025;-78
2022/09/17 03:50:18;;;;;;;5.53;1.03;;;11.90;99.90;;;;;;5043719;28;20033;-78
2022/09/17 03:52:43;;;;;;;3.07;1.03;;;12.00;99.90;;;;;;5043566;28;20051;-78
2022/09/17 03:55:10;;;;;;;4.33;1.17;;;12.00;99.90;;;;;;5043077;28;20024;-78
2022/09/17 03:57:36;;;;;;;7.68;1.00;;;12.00;99.90;;;;;;5042555;28;20025;-78
2022/09/17 04:00:04;;;;;;;4.47;1.00;;;12.00;99.90;;;;;;5041982;28;20090;-78
2022/09/17 04:02:29;;;;;;;2.85;1.20;;;11.90;99.90;;;;;;5041605;28;20032;-77
2022/09/17 04:04:55;;;;;;;5.63;1.00;;;11.90;99.90;;;;;;5042214;28;20478;-77
2022/09/17 04:07:21;;;;;;;5.63;1.00;;;11.80;99.90;;;;;;5043350;28;20492;-78
2022/09/17 04:09:46;;;;;;;2.30;1.00;;;11.80;99.90;;;;;;5043339;28;20025;-78
2022/09/17 04:12:12;;;;;;;3.33;0.90;;;11.80;99.90;;;;;;5060536;28;20474;-78
2022/09/17 04:14:37;;;;;;;5.40;1.10;;;11.80;99.90;;;;;;5042707;28;20032;-78
2022/09/17 04:17:03;;;;;;;8.93;1.20;;;11.70;99.90;;;;;;5042815;28;20039;-78
2022/09/17 04:19:28;;;;;;;6.03;1.40;;;11.70;99.90;;;;;;5040438;28;20035;-77
2022/09/17 04:21:54;;;;;;;3.10;0.97;;;11.80;99.90;;;;;;5037906;28;20032;-77
2022/09/17 04:24:19;;;;;;;7.53;1.73;;;11.70;99.90;;;;;;5055889;28;20025;-77
2022/09/17 04:26:45;;;;;;;2.50;1.10;;;11.70;99.90;;;;;;5055892;28;20078;-77
2022/09/17 04:29:10;;;;;;;3.80;1.00;;;11.80;99.90;;;;;;5058329;28;20021;-78
2022/09/17 04:31:36;;;;;;;7.23;1.37;;;11.80;99.90;;;;;;5040227;28;20021;-78
2022/09/17 04:34:02;;;;;;;2.07;0.90;;;11.80;99.90;;;;;;5057578;28;20052;-76
2022/09/17 04:36:30;;;;;;;4.20;1.27;;;11.80;99.90;;;;;;5040362;28;20084;-77
2022/09/17 04:38:56;;;;;;;2.33;1.20;;;11.90;99.90;;;;;;5043305;28;20025;-78
2022/09/17 04:41:21;;;;;;;4.77;1.40;;;11.90;99.90;;;;;;5047577;28;20034;-77
2022/09/17 04:43:47;;;;;;;2.40;0.93;;;11.90;99.90;;;;;;5045657;28;20428;-78
2022/09/17 04:46:13;;;;;;;2.97;1.30;;;11.90;99.90;;;;;;5045689;28;20072;-77
2022/09/17 04:48:38;;;;;;;4.27;1.20;;;11.90;99.90;;;;;;5047404;28;20474;-77
2022/09/17 04:51:04;;;;;;;6.13;1.87;;;11.80;99.90;;;;;;5039483;28;20275;-77
2022/09/17 04:53:30;;;;;;;3.90;1.25;;;11.90;99.90;;;;;;5040995;28;20736;-77
2022/09/17 04:55:55;;;;;;;4.67;1.20;;;11.80;99.90;;;;;;5040670;28;20086;-77
2022/09/17 04:58:21;;;;;;;4.07;1.63;;;11.90;99.90;;;;;;5037614;28;20036;-77
2022/09/17 05:00:47;;;;;;;3.20;1.10;;;11.90;99.90;;;;;;5037909;28;20021;-77
2022/09/17 05:03:13;;;;;;;5.57;1.90;;;11.90;99.90;;;;;;5037137;28;20028;-78
2022/09/17 05:05:38;;;;;;;8.80;1.70;;;11.90;99.90;;;;;;5037046;28;20484;-78
2022/09/17 05:08:04;;;;;;;4.03;1.70;;;11.80;99.90;;;;;;5055338;28;20143;-78
2022/09/17 05:10:30;;;;;;;3.88;1.48;;;11.80;99.90;;;;;;5037159;28;20446;-77
2022/09/17 05:12:56;;;;;;;5.30;1.27;;;11.80;99.90;;;;;;5055514;28;20039;-78
2022/09/17 05:15:24;;;;;;;4.50;1.40;;;11.80;99.90;;;;;;5037489;28;20032;-77
2022/09/17 05:17:50;;;;;;;4.10;1.25;;;11.80;99.90;;;;;;5054958;28;20025;-78
2022/09/17 05:20:16;;;;;;;8.10;1.92;;;11.80;99.90;;;;;;5036917;28;20029;-77
2022/09/17 05:22:50;;;;;;;6.07;1.50;;;11.90;99.90;;;;;;5037069;28;20086;-77
2022/09/17 05:25:18;;;;;;;7.95;1.50;;;11.80;99.90;;;;;;5054812;28;20033;-77
2022/09/17 05:27:44;;;;;;;3.47;1.17;;;11.80;99.90;;;;;;5036690;28;20032;-78
2022/09/17 05:30:10;;;;;;;2.67;1.20;;;11.80;99.90;;;;;;5036938;28;20021;-78
2022/09/17 05:32:37;;;;;;;6.15;1.40;;;11.80;99.90;;;;;;5055283;28;20027;-78
2022/09/17 05:35:04;;;;;;;12.02;1.92;;;11.80;99.90;;;;;;5041713;28;20112;-78
2022/09/17 05:37:30;;;;;;;5.95;1.30;;;11.80;99.90;;;;;;5043415;28;20029;-78
2022/09/17 05:39:56;;;;;;;4.63;1.98;;;11.80;99.90;;;;;;5040798;28;20056;-78
2022/09/17 05:42:21;;;;;;;5.70;1.52;;;11.80;99.90;;;;;;5037995;28;20029;-77
2022/09/17 05:44:47;;;;;;;5.60;1.50;;;11.80;99.90;;;;;;5055788;23;20034;-65
2022/09/17 05:47:12;;;;;;;7.53;1.80;;;11.80;99.90;;;;;;5034527;28;20061;-66
2022/09/17 05:49:38;;;;;;;7.47;1.70;;;11.70;99.90;;;;;;5034379;28;20044;-66
2022/09/17 05:52:04;;;;;;;6.30;1.60;;;11.70;99.90;;;;;;5034107;28;20044;-65
2022/09/17 05:54:30;;;;;;;5.75;1.60;;;11.60;99.90;;;;;;5034169;28;20048;-66
2022/09/17 05:56:55;;;;;;;7.30;2.50;;;11.60;99.90;;;;;;5033776;28;20029;-66
2022/09/17 05:59:21;;;;;;;4.33;2.10;;;11.40;99.90;;;;;;5033403;28;20127;-66
2022/09/17 06:01:47;;;;;;;6.85;2.10;;;11.30;99.90;;;;;;5032432;28;20034;-66
2022/09/17 06:04:13;;;;;;;8.32;2.55;;;11.20;99.90;;;;;;5032763;28;20033;-67
2022/09/17 06:06:40;;;;;;;7.40;2.33;;;11.20;99.90;;;;;;5033544;28;20592;-67
2022/09/17 06:09:09;;;;;;;9.00;3.10;;;11.20;99.90;;;;;;5032585;28;20030;-67
2022/09/17 06:11:36;;;;;;;5.93;2.33;;;11.10;99.90;;;;;;5033883;28;20474;-67
2022/09/17 06:14:02;;;;;;;5.97;2.17;;;11.20;99.90;;;;;;5033480;28;20025;-67
2022/09/17 06:16:28;;;;;;;8.82;2.88;;;11.10;99.90;;;;;;5032238;28;20120;-67
2022/09/17 06:18:54;;;;;;;4.70;2.40;;;11.10;99.90;;;;;;5032507;28;20103;-68
2022/09/17 06:21:21;;;;;;;7.03;3.03;;;11.00;99.90;;;;;;5033614;28;20433;-68
2022/09/17 06:23:50;;;;;;;8.80;2.78;;;11.00;99.90;;;;;;5032958;28;20025;-68
2022/09/17 06:26:16;;;;;;;5.75;2.72;;;11.10;99.90;;;;;;5033583;28;20021;-68
2022/09/17 06:28:42;;;;;;;9.43;3.72;;;11.10;99.90;;;;;;5032183;28;20152;-68
2022/09/17 06:31:09;;;;;;;10.95;3.10;;;11.10;99.90;;;;;;5033283;28;20028;-67
2022/09/17 06:33:35;;;;;;;8.63;3.22;;;11.10;99.90;;;;;;5031988;28;20042;-68
2022/09/17 06:36:06;;;;;;;6.97;2.63;;;11.10;99.90;;;;;;5033502;28;20025;-66
2022/09/17 06:38:33;;;;;;;7.88;4.03;;;11.00;99.90;;;;;;5034014;28;20025;-68
2022/09/17 06:40:58;;;;;;;8.07;3.42;;;11.10;99.90;;;;;;5031963;28;20025;-68
2022/09/17 06:43:24;;;;;;;10.13;3.30;;;11.10;99.90;;;;;;5033671;28;20459;-67
2022/09/17 06:46:09;;;;;;;7.82;4.05;;;11.20;99.90;;;;;;5033609;28;20088;-68
2022/09/17 06:48:37;;;;;;;7.90;3.53;;;11.20;99.90;;;;;;5032875;28;20592;-67
2022/09/17 06:51:05;;;;;;;12.18;3.70;;;11.30;99.90;;;;;;5032277;28;20144;-68
2022/09/17 06:53:31;;;;;;;7.70;3.28;;;11.40;99.90;;;;;;5032276;28;20021;-68
2022/09/17 06:55:58;;;;;;;8.05;3.47;;;11.50;99.90;;;;;;5033129;28;20489;-68
2022/09/17 06:58:25;;;;;;;8.65;3.17;;;11.40;99.90;;;;;;5033153;28;20045;-68
2022/09/17 07:00:50;;;;;;;6.25;3.17;;;11.50;99.90;;;;;;5032112;28;20097;-67
2022/09/17 07:03:16;;;;;;;5.03;3.15;;;11.60;99.90;;;;;;5033331;28;20492;-67
2022/09/17 07:05:43;;;;;;;6.60;3.57;;;11.50;99.90;;;;;;5031776;28;20021;-68
2022/09/17 07:08:09;;;;;;;5.70;3.55;;;11.60;99.90;;;;;;5033085;28;20061;-67
2022/09/17 07:10:35;;;;;;;;;;;11.70;99.90;;;;;;5034285;28;20022;-67
2022/09/17 07:13:00;;;;;;;7.50;3.20;;;11.80;99.90;;;;;;5036545;28;19912;-66
2022/09/17 07:15:26;;;;;;;4.60;3.17;;;11.80;99.90;;;;;;5037085;28;20108;-67
2022/09/17 07:17:52;;;;;;;7.78;4.90;;;12.00;99.90;;;;;;5036795;28;20048;-67
2022/09/17 07:20:17;;;;;;;6.93;3.60;;;12.00;99.90;;;;;;5036670;28;20057;-68
2022/09/17 07:22:43;;;;;;;4.80;3.50;;;12.00;99.90;;;;;;5038019;28;20057;-67
2022/09/17 07:25:09;;;;;;;6.73;3.17;;;12.00;99.90;;;;;;5035197;28;20500;-68
2022/09/17 07:27:35;;;;;;;6.50;3.05;;;12.00;99.90;;;;;;5036701;28;20359;-71
2022/09/17 07:30:00;;;;;;;11.13;3.63;;;12.00;99.90;;;;;;5036434;28;20069;-66
2022/09/17 07:32:29;;;;;;;8.03;3.30;;;12.00;99.90;;;;;;5036790;28;20026;-63
2022/09/17 07:34:55;;;;;;;7.32;3.40;;;12.00;99.90;;;;;;5036355;28;20114;-68
2022/09/17 07:37:20;;;;;;;5.70;2.90;;;12.10;99.90;;;;;;5036330;28;20100;-66
2022/09/17 07:39:46;;;;;;;7.00;3.72;;;12.20;99.90;;;;;;5035150;28;20025;-64
2022/09/17 07:42:11;;;;;;;7.77;2.90;;;12.40;99.90;;;;;;5036494;28;20030;-67
2022/09/17 07:44:37;;;;;;;9.63;3.47;;;12.60;99.90;;;;;;5035302;28;20393;-67
2022/09/17 07:47:03;;;;;;;6.40;2.80;;;12.80;99.90;;;;;;5037014;28;20021;-67
2022/09/17 07:49:29;;;;;;;7.38;2.88;;;13.10;99.90;;;;;;5035888;28;20032;-63
2022/09/17 07:51:55;;;;;;;;;;;13.10;99.90;;;;;;5036354;28;20080;-67
2022/09/17 07:54:21;;;;;;;14.70;3.65;;;13.00;99.90;;;;;;5036980;28;20369;-67
2022/09/17 07:56:47;;;;;;;8.15;2.80;;;13.20;99.90;;;;;;5036433;28;20481;-61
2022/09/17 07:59:12;;;;;;;8.53;2.80;;;13.00;99.90;;;;;;5037501;28;20037;-61
2022/09/17 08:01:38;;;;;;;7.70;3.00;;;13.00;99.90;;;;;;5036676;28;20029;-63
2022/09/17 08:04:04;;;;;;;6.27;3.10;;;13.00;99.90;;;;;;5036963;28;20025;-63
2022/09/17 08:06:30;;;;;;;;;;;13.20;99.90;;;;;;5037349;28;20021;-61
2022/09/17 08:08:57;;;;;;;7.57;2.65;;;13.30;99.90;;;;;;5037352;28;19955;-62
2022/09/17 08:11:25;;;;;;;6.88;2.40;;;13.20;99.90;;;;;;5037014;28;20043;-61
2022/09/17 08:13:53;;;;;;;6.88;2.88;;;13.20;99.90;;;;;;5037713;28;20478;-62
2022/09/17 08:16:19;;;;;;;4.22;2.80;;;13.10;99.90;;;;;;5037628;28;20032;-63
2022/09/17 08:18:46;;;;;;;8.30;2.60;;;13.20;99.90;;;;;;5039714;28;20037;-69
2022/09/17 08:21:14;;;;;;;5.80;2.92;;;13.30;99.90;;;;;;5038027;28;20030;-70
2022/09/17 08:23:41;;;;;;;6.35;2.97;;;13.40;99.90;;;;;;5036243;28;20022;-68
2022/09/17 08:26:14;;;;;;;7.93;2.97;;;13.50;99.90;;;;;;5036733;28;20032;-66
2022/09/17 08:28:44;;;;;;;8.40;4.28;;;13.50;99.90;;;;;;5035564;28;20036;-63
2022/09/17 08:31:11;;;;;;;5.97;2.20;;;13.80;99.90;;;;;;5037220;28;20076;-65
2022/09/17 08:33:38;;;;;;;;;;;14.10;99.90;;;;;;5037350;28;20478;-64
2022/09/17 08:36:05;;;;;;;6.60;2.40;;;14.40;99.90;;;;;;5036675;28;19955;-64
2022/09/17 08:38:32;;;;;;;6.97;2.30;;;14.60;99.90;;;;;;5036416;28;20021;-64
2022/09/17 08:41:13;;;;;;;9.05;2.15;;;14.70;99.90;;;;;;5035329;28;20056;-62
2022/09/17 08:44:05;;;;;;;9.60;1.80;;;14.80;99.90;;;;;;5036240;28;20450;-64
2022/09/17 08:46:52;;;;;;;6.47;2.10;;;14.80;99.90;;;;;;5035530;28;20041;-66
2022/09/17 08:49:28;;;;;;;6.18;1.92;;;14.70;99.90;;;;;;5034435;28;20064;-67
2022/09/17 08:52:32;;;;;;;5.33;1.50;;;14.60;99.90;;;;;;5036743;28;20115;-66
2022/09/17 08:55:19;;;;;;;6.53;1.70;;;14.50;99.90;;;;;;5034100;28;20398;-67
2022/09/17 08:58:09;;;;;;;6.23;1.90;;;14.30;99.90;;;;;;5035613;28;20045;-67
2022/09/17 09:00:50;;;;;;;8.00;2.00;;;14.30;99.90;;;;;;5035631;28;20279;-65
2022/09/17 09:03:42;;;;;;;4.82;1.55;;;14.60;99.90;;;;;;5033531;28;20455;-66
2022/09/17 09:06:09;;;;;;;4.63;1.33;;;15.80;99.90;;;;;;5033867;28;20399;-66
2022/09/17 09:08:52;;;;;;;6.57;1.48;;;16.80;99.90;;;;;;5034691;28;20032;-66
2022/09/17 09:11:26;;;;;;;5.80;1.42;;;18.20;99.90;;;;;;5035043;28;20053;-65
2022/09/17 09:14:03;;;;;;;6.93;2.72;;;20.40;99.80;;;;;;5034588;28;20021;-66
2022/09/17 09:16:32;;;;;;;5.60;1.50;;;22.20;95.50;;;;;;5034383;28;20021;-66
2022/09/17 09:19:25;;;;;;;6.47;1.77;;;23.70;92.80;;;;;;5034843;28;20025;-66
2022/09/17 09:22:13;;;;;;;4.38;1.35;;;25.20;89.70;;;;;;5034416;28;20018;-67
2022/09/17 09:24:49;;;;;;;4.75;1.42;;;26.10;86.50;;;;;;5035077;28;20528;-67
2022/09/17 09:27:22;;;;;;;4.07;1.38;;;26.00;83.30;;;;;;5039082;28;20085;-71
2022/09/17 09:29:55;;;;;;;4.70;1.23;;;23.90;85.10;;;;;;5033174;28;20457;-72
2022/09/17 09:32:40;;;;;;;5.53;1.27;;;22.60;89.20;;;;;;5032971;28;20022;-67
2022/09/17 09:35:21;;;;;;;3.33;1.27;;;21.90;91.40;;;;;;5033805;28;20025;-72
2022/09/17 09:37:53;;;;;;;6.35;1.33;;;22.80;90.10;;;;;;5035812;28;20032;-71
2022/09/17 09:40:30;;;;;;;5.10;1.23;;;23.40;87.20;;;;;;5037007;28;20485;-71
2022/09/17 09:43:01;;;;;;;4.88;1.60;;;23.20;88.70;;;;;;5033399;28;20033;-66
2022/09/17 09:45:51;;;;;;;5.32;1.35;;;23.50;86.50;;;;;;5034400;28;20040;-74
2022/09/17 09:48:41;;;;;;;3.33;0.93;;;24.10;86.00;;;;;;5035314;28;20469;-73
2022/09/17 09:51:12;;;;;;;3.60;1.10;;;25.70;83.00;;;;;;5037695;28;20121;-74
2022/09/17 09:54:19;;;;;;;6.82;2.10;;;24.10;83.30;;;;;;5037771;28;20413;-73
2022/09/17 09:57:02;;;;;;;5.22;1.17;;;21.40;89.00;;;;;;5030464;28;20025;-73
2022/09/17 09:59:28;;;;;;;4.22;1.23;;;19.70;92.20;;;;;;5032868;28;20044;-72
2022/09/17 10:01:54;;;;;;;5.03;1.33;;;19.40;93.60;;;;;;5032359;28;20025;-73
2022/09/17 10:04:27;;;;;;;4.22;1.33;;;19.80;93.20;;;;;;5032477;28;20474;-67
2022/09/17 10:07:07;;;;;;;4.35;1.38;;;20.50;93.10;;;;;;5033647;28;20026;-73
2022/09/17 10:09:35;;;;;;;9.68;1.73;;;20.10;92.50;;;;;;5033986;28;20470;-72
2022/09/17 10:12:07;;;;;;;4.88;1.30;;;19.90;93.30;;;;;;5033903;28;20030;-72
2022/09/17 10:14:37;;;;;;;5.80;1.52;;;19.80;93.30;;;;;;5034104;28;20155;-73
2022/09/17 10:17:23;;;;;;;4.57;1.50;;;19.20;93.80;;;;;;5034191;28;20029;-72
2022/09/17 10:20:01;;;;;;;7.65;1.73;;;18.40;95.40;;;;;;5034137;28;20078;-72
2022/09/17 10:22:32;;;;;;;3.45;1.23;;;18.50;95.30;;;;;;5034150;28;20443;-72
2022/09/17 10:25:00;;;;;;;5.00;1.50;;;18.60;95.30;;;;;;5033883;28;20026;-72
2022/09/17 10:27:26;;;;;;;5.50;1.85;;;18.20;95.80;;;;;;5034489;28;20037;-73
2022/09/17 10:30:16;;;;;;;3.83;1.38;;;17.80;96.10;;;;;;5032927;28;20029;-72
2022/09/17 10:32:42;;;;;;;6.00;1.42;;;17.30;97.10;;;;;;5034013;28;20026;-72
2022/09/17 10:35:13;;;;;;;6.70;1.45;;;17.30;98.00;;;;;;5032496;28;20025;-73
2022/09/17 10:37:45;;;;;;;3.70;1.10;;;19.70;95.40;;;;;;5033666;28;20026;-71
2022/09/17 10:40:17;;;;;;;5.85;1.52;;;22.00;92.30;;;;;;5032624;28;20025;-72
2022/09/17 10:42:50;;;;;;;3.97;1.25;;;23.00;89.70;;;;;;5032607;28;20029;-73
2022/09/17 10:45:30;;;;;;;5.68;1.50;;;22.10;89.10;;;;;;5034086;28;20580;-72
2022/09/17 10:47:58;;;;;;;5.35;1.10;;;20.90;91.00;;;;;;5038533;28;20041;-73
2022/09/17 10:50:29;;;;;;;3.25;1.02;;;20.00;91.90;;;;;;5037023;28;20055;-66
2022/09/17 10:53:01;;;;;;;3.17;1.08;;;19.40;92.40;;;;;;5036579;28;20038;-67
2022/09/17 10:55:43;;;;;;;6.30;1.40;;;18.70;92.90;;;;;;5039789;28;20067;-67
2022/09/17 10:58:23;;;;;;;4.90;2.10;;;18.10;94.80;;;;;;5040706;28;20022;-62
2022/09/17 11:01:17;;;;;;;5.85;1.45;;;17.70;97.30;;;;;;5039047;28;20025;-70
2022/09/17 11:03:58;;;;;;;7.88;2.17;;;17.40;97.00;;;;;;5040749;28;20021;-65
2022/09/17 11:06:29;;;;;;;5.03;1.33;;;17.30;97.20;;;;;;5037172;28;20030;-63
2022/09/17 11:09:27;;;;;;;5.05;1.30;;;17.40;97.10;;;;;;5038450;28;20509;-70
2022/09/17 11:12:18;;;;;;;3.03;1.23;;;17.40;98.60;;;;;;5039167;28;20026;-70
2022/09/17 11:14:44;;;;;;;8.27;1.77;;;17.20;98.50;;;;;;5038492;28;20033;-69
2022/09/17 11:17:42;;;;;;;4.03;1.00;;;17.00;99.40;;;;;;5036702;28;20032;-63
2022/09/17 11:20:27;;;;;;;7.43;1.35;;;16.80;98.40;;;;;;5037847;28;20248;-62
2022/09/17 11:23:20;;;;;;;8.55;2.10;;;16.50;98.50;;;;;;5037566;28;20056;-71
2022/09/17 11:26:03;;;;;;;6.38;1.63;;;16.30;98.60;;;;;;5037484;28;20395;-71
2022/09/17 11:28:43;;;;;;;5.32;1.25;;;16.30;99.90;;;;;;5036925;28;20034;-70
2022/09/17 11:31:20;;;;;;;4.57;1.00;;;16.20;99.40;;;;;;5036625;28;20075;-70
2022/09/17 11:34:24;;;;;;;4.38;0.98;;;16.20;99.90;;;;;;5035365;28;20370;-71
2022/09/17 11:37:05;;;;;;;7.70;1.00;;;16.20;99.50;;;;;;5027763;28;20386;-71
2022/09/17 11:39:56;;;;;;;5.93;1.70;;;16.30;98.90;;;;;;5035391;28;20505;-71
2022/09/17 11:42:27;;;;;;;3.28;0.98;;;16.60;98.30;;;;;;5035600;28;20032;-71
2022/09/17 11:44:54;;;;;;;4.63;1.48;;;16.90;97.80;;;;;;5058666;23;20045;-70
2022/09/17 11:47:28;;;;;;;4.85;1.58;;;17.30;97.50;;;;;;5016204;28;20026;-70
2022/09/17 11:50:03;;;;;;;3.85;0.90;;;17.60;97.00;;;;;;5015440;28;20114;-68
2022/09/17 11:52:41;;;;;;;4.38;1.30;;;17.40;96.10;;;;;;5015390;28;20396;-70
2022/09/17 11:55:30;;;;;;;4.32;1.00;;;17.10;96.10;;;;;;5016484;28;20532;-67
2022/09/17 11:58:08;;;;;;;4.28;0.90;;;16.50;98.40;;;;;;5015285;28;20048;-65
2022/09/17 12:00:39;;;;;;;9.18;1.65;;;15.90;99.90;;;;;;5015967;28;20164;-64
2022/09/17 12:03:33;;;;;;;8.07;1.27;;;15.20;99.90;;;;;;5016513;28;20156;-67
2022/09/17 12:06:06;;;;;;;5.85;1.42;;;14.40;99.90;;;;;;5014610;28;20096;-67
2022/09/17 12:08:45;;;;;;;3.80;1.23;;;13.60;99.90;;;;;;5016322;28;20030;-68
2022/09/17 12:11:35;;;;;;;4.68;1.73;;;13.30;99.90;;;;;;5014581;28;20026;-69
2022/09/17 12:14:22;;;;;;;6.65;1.52;;;13.20;99.90;;;;;;5015946;28;20075;-68
2022/09/17 12:16:55;;;;;;;2.55;0.98;;;13.10;99.90;;;;;;5016005;28;20022;-65
2022/09/17 12:19:41;;;;;;;8.07;1.50;;;13.00;99.90;;;;;;5014564;28;20397;-67
2022/09/17 12:22:21;;;;;;;3.45;1.27;;;13.00;99.90;;;;;;5015839;28;20025;-65
2022/09/17 12:24:50;;;;;;;5.32;2.30;;;13.00;99.90;;;;;;5014350;28;20126;-66
2022/09/17 12:27:32;;;;;;;6.05;1.40;;;12.90;99.90;;;;;;5015736;28;20080;-67
2022/09/17 12:30:15;;;;;;;3.85;1.25;;;12.90;99.90;;;;;;5015872;28;20444;-66
2022/09/17 12:32:59;;;;;;;3.63;1.52;;;13.00;99.90;;;;;;5015597;28;20021;-64
2022/09/17 12:35:46;;;;;;;3.40;1.60;;;13.20;99.90;;;;;;5015421;28;20029;-65
2022/09/17 12:38:34;;;;;;;5.35;1.33;;;13.40;99.90;;;;;;5015520;28;20026;-65
2022/09/17 12:41:19;;;;;;;5.90;1.50;;;13.60;99.90;;;;;;5016546;28;20051;-64
2022/09/17 12:44:12;;;;;;;6.07;1.75;;;13.90;99.90;;;;;;5015176;28;20053;-68
2022/09/17 12:47:15;;;;;;;5.72;1.42;;;14.00;99.90;;;;;;5015183;28;20494;-65
2022/09/17 12:50:02;;;;;;;2.50;1.52;;;14.30;99.90;;;;;;5013570;28;20076;-67
2022/09/17 12:52:31;;;;;;;;;;;14.60;99.90;;;;;;5015434;28;20023;-65
2022/09/17 12:55:29;;;;;;;2.60;1.48;;;14.80;99.90;;;;;;5015156;28;19905;-66
2022/09/17 12:58:46;;;;;;;3.38;1.40;;;14.90;99.90;;;;;;5014176;28;20017;-66
2022/09/17 13:01:44;;;;;;;5.13;1.55;;;15.20;99.90;;;;;;4982355;28;20124;-65
2022/09/17 13:04:47;;;;;;;4.93;2.28;;;15.40;99.90;;;;;;5013483;28;20022;-65
2022/09/17 13:07:46;;;;;;;5.05;1.67;;;15.60;99.90;;;;;;5015013;28;20463;-66
2022/09/17 13:10:47;;;;;;;8.27;1.75;;;15.60;99.90;;;;;;5012818;28;20505;-70
2022/09/17 13:13:24;;;;;;;6.22;2.05;;;15.70;99.90;;;;;;5015955;28;20022;-71
2022/09/17 13:15:59;;;;;;;4.55;1.55;;;15.60;99.90;;;;;;5015549;28;20021;-69
2022/09/17 13:18:37;;;;;;;5.35;1.30;;;15.50;99.90;;;;;;5016124;28;20033;-69
2022/09/17 13:21:13;;;;;;;5.28;1.85;;;15.60;99.90;;;;;;5016135;28;20042;-68